Nsu Inspire — 3FID5 — position and weather

sailwx.info

Track history (hours):
 
Tides and Currents Weather Stations Pressure Air Temp Water Temp Dewpoint Dewpoint Depression Visibility Wind Speed Wind Dir Waves Ship Positions

Nsu Inspire

Last reported at 2016-Aug-26 01:33 UTC. Time now 2016-Aug-27 08:03 UTC.
Position S 29°17' E 034°38'.

Length 330 m; draft 18.2 m.

Type: Cargo ship. MMSI: 372998000.

Date/timePositionNaut miles runAvg speedWind from/ knotsBaromVisibWave heightAir tempDewpointWater temp
2016-Aug-26 01:33S 29°17' E 034°38'1312.8
2016-Aug-26 00:31S 29°21' E 034°24'1212.5
2016-Aug-25 23:34S 29°24' E 034°11'1212.1
2016-Aug-25 22:34S 29°27' E 033°57'1211.7
2016-Aug-25 21:33S 29°32' E 033°45'1211.9
2016-Aug-25 20:33S 29°35' E 033°32'1212.3
2016-Aug-25 19:33S 29°40' E 033°19'1111.3
2016-Aug-25 18:34S 29°43' E 033°06'1111.5
2016-Aug-25 17:33S 29°47' E 032°54'1211.7
2016-Aug-25 16:33S 29°51' E 032°41'1111.3
2016-Aug-25 15:33S 29°55' E 032°29'1111.1
2016-Aug-25 14:34S 29°59' E 032°17'1110.7
2016-Aug-25 13:33S 30°03' E 032°05'1010.4
2016-Aug-25 12:33S 30°06' E 031°54'1010.2
2016-Aug-25 11:34S 30°10' E 031°43'10 9.9
2016-Aug-25 10:34S 30°13' E 031°32'10 9.7
2016-Aug-25 09:33S 30°16' E 031°22'9 9.4
2016-Aug-25 08:33S 30°19' E 031°11'1110.9
2016-Aug-25 07:33S 30°25' E 031°01'1110.9
2016-Aug-25 06:33S 30°34' E 030°53'  
Track history (hours):
 
Tides and Currents Weather Stations Pressure Air Temp Water Temp Dewpoint Dewpoint Depression Visibility Wind Speed Wind Dir Waves Ship Positions

Nsu Inspire

Last reported at 2016-Aug-26 01:33 UTC. Time now 2016-Aug-27 08:03 UTC.
Position S 29°17' E 034°38'.

Length 330 m; draft 18.2 m.

Type: Cargo ship. MMSI: 372998000.

Date/timePositionNaut miles runAvg speedWind from/ knotsBaromVisibWave heightAir tempDewpointWater temp
2016-Aug-26 01:33S 29°17' E 034°38'1312.8
2016-Aug-26 00:31S 29°21' E 034°24'1212.5
2016-Aug-25 23:34S 29°24' E 034°11'1212.1
2016-Aug-25 22:34S 29°27' E 033°57'1211.7
2016-Aug-25 21:33S 29°32' E 033°45'1211.9
2016-Aug-25 20:33S 29°35' E 033°32'1212.3
2016-Aug-25 19:33S 29°40' E 033°19'1111.3
2016-Aug-25 18:34S 29°43' E 033°06'1111.5
2016-Aug-25 17:33S 29°47' E 032°54'1211.7
2016-Aug-25 16:33S 29°51' E 032°41'1111.3
2016-Aug-25 15:33S 29°55' E 032°29'1111.1
2016-Aug-25 14:34S 29°59' E 032°17'1110.7
2016-Aug-25 13:33S 30°03' E 032°05'1010.4
2016-Aug-25 12:33S 30°06' E 031°54'1010.2
2016-Aug-25 11:34S 30°10' E 031°43'10 9.9
2016-Aug-25 10:34S 30°13' E 031°32'10 9.7
2016-Aug-25 09:33S 30°16' E 031°22'9 9.4
2016-Aug-25 08:33S 30°19' E 031°11'1110.9
2016-Aug-25 07:33S 30°25' E 031°01'1110.9
2016-Aug-25 06:33S 30°34' E 030°53'  

Dump ship's entire track history